Terminal Aerodrome Forecast
Issued by NWS Wichita, KS

Home | Current Version | Previous Version | Text Only | Print | Product List | Glossary Off
Versions: 1 2 3 4 5 6 7 8 9 10 11 12 13 14 15 16 17 18

000
FTUS43 KICT 062320
TAFICT
TAF
KICT 062320Z 0700/0724 16023G33KT P6SM VCTS BKN025CB BKN035
      TEMPO 0700/0703 VRB25G35KT 2SM +TSRA OVC015CB
     FM070300 16023G32KT P6SM VCTS BKN035CB
     FM070800 18020G30KT P6SM OVC010
     FM071700 19020G30KT P6SM SCT020 BKN100=

USA.gov is the U.S. government's official web portal to all federal, state and local government web resources and services.